Time;durP1;ratioP1;P1;durP2;ratioP2;P2;SDS_P1;SDS_P2;PMS_P1;PMS_P2;Temp;Humidity;BMP_temperature;BMP_pressure;BME280_temperature;BME280_humidity;BME280_pressure;Samples;Min_cycle;Max_cycle;Signal;HPM_P1;HPM_P2
2021/11/23 00:00:46;;;;;;;;;;;;;;;27.80;67.29;100820.06;5078829;27;69932;-37
2021/11/23 00:03:17;;;;;;;;;;;;;;;27.86;68.50;100816.59;5075244;27;66356;-37
2021/11/23 00:05:48;;;;;;;;;;;;;;;27.89;69.05;100818.88;5082294;27;70040;-37
2021/11/23 00:08:18;;;;;;;;;;;;;;;28.00;69.68;100833.63;5053394;28;66454;-37
2021/11/23 00:10:48;;;;;;;;;;;;;;;27.96;73.21;100840.47;5066524;27;69838;-38
2021/11/23 00:13:19;;;;;;;;;;;;;;;27.87;74.65;100853.28;5086060;27;65373;-38
2021/11/23 00:15:48;;;;;;;;;;;;;;;27.89;74.42;100856.63;5077384;27;69544;-39
2021/11/23 00:18:18;;;;;;;;;;;;;;;27.93;74.54;100857.06;5076331;27;66205;-38
2021/11/23 00:20:49;;;;;;;;;;;;;;;27.88;75.32;100860.34;5077217;27;70265;-39
2021/11/23 00:23:19;;;;;;;;;;;;;;;27.92;75.63;100871.56;5075540;27;65796;-38
2021/11/23 00:25:49;;;;;;;;;;;;;;;27.91;75.66;100869.88;5078013;27;70467;-39
2021/11/23 00:28:19;;;;;;;;;;;;;;;27.92;76.06;100872.41;5058227;28;65280;-39
2021/11/23 00:30:49;;;;;;;;;;;;;;;27.96;73.53;100876.34;5070625;27;69953;-38
2021/11/23 00:33:19;;;;;;;;;;;;;;;28.02;71.56;100878.22;5075959;27;65750;-36
2021/11/23 00:35:49;;;;;;;;;;;;;;;28.07;70.31;100875.75;5075743;27;70464;-38
2021/11/23 00:38:19;;;;;;;;;;;;;;;28.14;70.01;100880.34;5075202;27;66602;-37
2021/11/23 00:40:49;;;;;;;;;;;;;;;28.19;68.92;100880.59;5074739;27;70337;-38
2021/11/23 00:43:19;;;;;;;;;;;;;;;28.24;68.35;100891.59;5076683;27;66564;-38
2021/11/23 00:45:49;;;;;;;;;;;;;;;28.29;67.99;100899.91;5075522;27;70093;-38
2021/11/23 00:48:20;;;;;;;;;;;;;;;28.32;67.67;100909.47;5076683;27;66831;-38
2021/11/23 00:50:51;;;;;;;;;;;;;;;28.34;67.35;100910.94;5076143;27;70318;-37
2021/11/23 00:53:21;;;;;;;;;;;;;;;28.39;67.33;100910.31;5074465;27;66109;-37
2021/11/23 00:55:51;;;;;;;;;;;;;;;28.41;66.92;100914.47;5072935;27;69203;-38
2021/11/23 00:58:21;;;;;;;;;;;;;;;28.45;66.81;100915.78;5075062;27;66025;-37
2021/11/23 01:00:51;;;;;;;;;;;;;;;28.46;66.52;100913.91;5058243;27;70579;-37
2021/11/23 01:03:22;;;;;;;;;;;;;;;28.48;66.69;100919.94;5075321;27;66574;-38
2021/11/23 01:05:51;;;;;;;;;;;;;;;28.49;66.50;100927.81;5073712;27;69151;-39
2021/11/23 01:08:22;;;;;;;;;;;;;;;28.52;66.00;100919.31;5073566;27;66134;-38
2021/11/23 01:10:52;;;;;;;;;;;;;;;28.56;65.98;100916.22;5073806;27;70603;-37
2021/11/23 01:13:22;;;;;;;;;;;;;;;28.56;65.67;100924.34;5074977;27;66597;-38
2021/11/23 01:15:53;;;;;;;;;;;;;;;28.49;65.58;100910.81;5072665;27;70497;-38
2021/11/23 01:18:23;;;;;;;;;;;;;;;28.61;65.56;100925.38;5075177;27;66100;-39
2021/11/23 01:20:53;;;;;;;;;;;;;;;28.62;65.48;100928.91;5075021;27;70031;-37
2021/11/23 01:23:23;;;;;;;;;;;;;;;28.65;65.36;100933.91;5055787;28;65599;-38
2021/11/23 01:25:55;;;;;;;;;;;;;;;28.62;65.63;100932.44;5077474;27;69989;-38
2021/11/23 01:28:25;;;;;;;;;;;;;;;28.67;65.27;100937.22;5077146;27;66530;-37
2021/11/23 01:30:55;;;;;;;;;;;;;;;28.70;65.56;100942.22;5076591;27;70013;-38
2021/11/23 01:33:27;;;;;;;;;;;;;;;28.72;65.38;100942.81;5059065;28;66080;-38
2021/11/23 01:35:57;;;;;;;;;;;;;;;28.74;65.24;100946.16;5076300;27;69766;-38
2021/11/23 01:38:27;;;;;;;;;;;;;;;28.76;65.23;100943.28;5056452;28;67184;-38
2021/11/23 01:40:57;;;;;;;;;;;;;;;28.78;64.96;100946.56;5076849;27;69282;-39
2021/11/23 01:43:27;;;;;;;;;;;;;;;28.79;64.98;100949.06;5075976;27;66534;-38
2021/11/23 01:45:57;;;;;;;;;;;;;;;28.81;65.21;100947.00;5076892;27;70123;-38
2021/11/23 01:48:27;;;;;;;;;;;;;;;28.84;65.01;100940.38;5076487;27;66584;-38
2021/11/23 01:50:58;;;;;;;;;;;;;;;28.78;64.79;100936.63;5078363;27;70720;-39
2021/11/23 01:53:28;;;;;;;;;;;;;;;28.87;64.69;100940.78;5073767;27;65925;-38
2021/11/23 01:55:58;;;;;;;;;;;;;;;28.89;65.09;100944.13;5078296;27;69500;-38
2021/11/23 01:58:28;;;;;;;;;;;;;;;28.90;64.59;100940.38;5076489;27;65897;-37
2021/11/23 02:00:58;;;;;;;;;;;;;;;28.93;64.67;100953.47;5077171;27;70538;-37
2021/11/23 02:03:28;;;;;;;;;;;;;;;28.96;64.50;100949.53;5077089;27;66299;-37
2021/11/23 02:05:58;;;;;;;;;;;;;;;28.96;64.80;100939.53;5063842;27;69868;-38
2021/11/23 02:08:28;;;;;;;;;;;;;;;29.00;64.34;100944.53;5075911;27;66575;-38
2021/11/23 02:10:58;;;;;;;;;;;;;;;29.02;64.69;100953.28;5077905;27;70211;-37
2021/11/23 02:13:29;;;;;;;;;;;;;;;29.04;64.63;100952.06;5076893;27;65839;-39
2021/11/23 02:16:00;;;;;;;;;;;;;;;29.05;64.53;100945.59;5077501;27;69172;-38
2021/11/23 02:18:30;;;;;;;;;;;;;;;29.09;64.18;100954.16;5075654;27;66811;-38
2021/11/23 02:21:00;;;;;;;;;;;;;;;29.11;63.87;100954.75;5076948;27;69690;-37
2021/11/23 02:23:30;;;;;;;;;;;;;;;29.12;64.27;100945.63;5059982;28;66549;-39
2021/11/23 02:26:00;;;;;;;;;;;;;;;29.13;63.88;100939.19;5062917;27;69755;-38
2021/11/23 02:28:30;;;;;;;;;;;;;;;29.16;63.97;100936.88;5062202;27;66891;-38
2021/11/23 02:31:00;;;;;;;;;;;;;;;29.17;63.88;100935.03;5074637;27;70049;-37
2021/11/23 02:33:30;;;;;;;;;;;;;;;29.22;63.78;100932.53;5076835;27;66142;-38
2021/11/23 02:36:02;;;;;;;;;;;;;;;29.24;64.17;100930.44;5074990;27;70038;-38
2021/11/23 02:38:34;;;;;;;;;;;;;;;29.27;63.92;100930.03;5075851;27;65976;-37
2021/11/23 02:41:05;;;;;;;;;;;;;;;29.30;63.65;100935.03;5076810;27;69861;-38
2021/11/23 02:43:37;;;;;;;;;;;;;;;29.31;63.54;100925.91;5074586;27;66340;-38
2021/11/23 02:46:09;;;;;;;;;;;;;;;29.34;63.39;100930.88;5075502;27;70095;-38
2021/11/23 02:48:39;;;;;;;;;;;;;;;29.36;63.54;100928.81;5077678;27;66183;-36
2021/11/23 02:51:16;;;;;;;;;;;;;;;29.39;63.54;100922.97;5075270;27;69686;-37
2021/11/23 02:53:49;;;;;;;;;;;;;;;29.42;63.90;100926.28;5076021;27;66771;-37
2021/11/23 02:56:19;;;;;;;;;;;;;;;29.44;63.69;100926.91;5076867;27;71091;-38
2021/11/23 02:58:50;;;;;;;;;;;;;;;29.47;63.48;100926.50;5073791;27;66821;-38
2021/11/23 03:01:22;;;;;;;;;;;;;;;29.49;63.23;100927.13;5076114;27;68416;-38
2021/11/23 03:03:52;;;;;;;;;;;;;;;29.53;63.36;100928.34;5074255;27;66724;-38
2021/11/23 03:06:23;;;;;;;;;;;;;;;29.55;63.33;100915.47;5076699;27;69234;-39
2021/11/23 03:08:54;;;;;;;;;;;;;;;29.58;63.68;100909.63;5075730;27;67539;-38
2021/11/23 03:11:24;;;;;;;;;;;;;;;29.59;63.48;100912.13;5075226;27;70268;-38
2021/11/23 03:13:57;;;;;;;;;;;;;;;29.62;63.51;100905.47;5073822;27;66268;-38
2021/11/23 03:16:27;;;;;;;;;;;;;;;29.65;63.47;100902.38;5076784;27;70906;-38
2021/11/23 03:18:57;;;;;;;;;;;;;;;29.68;63.13;100898.44;5073050;27;66197;-38
2021/11/23 03:21:27;;;;;;;;;;;;;;;29.70;63.00;100899.88;5075358;27;69489;-38
2021/11/23 03:23:57;;;;;;;;;;;;;;;29.71;63.01;100885.31;5076443;27;67010;-38
2021/11/23 03:26:29;;;;;;;;;;;;;;;29.75;63.41;100889.22;5072924;27;69867;-38
2021/11/23 03:28:58;;;;;;;;;;;;;;;29.78;63.41;100890.69;5077184;27;65839;-38
2021/11/23 03:31:29;;;;;;;;;;;;;;;29.80;63.37;100880.50;5060964;27;70019;-38
2021/11/23 03:33:59;;;;;;;;;;;;;;;29.83;62.90;100875.47;5075004;27;66867;-38
2021/11/23 03:36:29;;;;;;;;;;;;;;;29.88;63.32;100876.72;5076877;27;69790;-38
2021/11/23 03:38:59;;;;;;;;;;;;;;;29.91;63.29;100876.31;5068380;27;66626;-38
2021/11/23 03:41:29;;;;;;;;;;;;;;;29.94;63.16;100870.47;5073653;27;69354;-39
2021/11/23 03:43:59;;;;;;;;;;;;;;;29.97;63.17;100864.63;5076363;27;65843;-37
2021/11/23 03:46:29;;;;;;;;;;;;;;;29.99;63.08;100857.97;5073775;27;70145;-38
2021/11/23 03:48:59;;;;;;;;;;;;;;;30.04;62.97;100862.72;5075119;27;67261;-38
2021/11/23 03:51:29;;;;;;;;;;;;;;;30.06;62.51;100858.75;5073140;27;70071;-38
2021/11/23 03:53:59;;;;;;;;;;;;;;;30.09;62.53;100851.25;5058199;28;65953;-38
2021/11/23 03:56:29;;;;;;;;;;;;;;;30.12;62.82;100857.06;5081743;27;69858;-37
2021/11/23 03:58:59;;;;;;;;;;;;;;;30.15;62.27;100848.53;5076273;27;65513;-38
2021/11/23 04:01:29;;;;;;;;;;;;;;;30.20;62.12;100850.56;5073151;27;69755;-38
2021/11/23 04:03:59;;;;;;;;;;;;;;;30.22;62.56;100857.44;5075024;27;66282;-37
2021/11/23 04:06:29;;;;;;;;;;;;;;;30.26;62.64;100857.88;5072913;27;69964;-37
2021/11/23 04:08:59;;;;;;;;;;;;;;;30.30;62.02;100850.13;5076243;27;66981;-38
2021/11/23 04:11:30;;;;;;;;;;;;;;;30.33;62.49;100849.69;5074310;27;70462;-38
2021/11/23 04:14:00;;;;;;;;;;;;;;;30.35;61.93;100839.50;5076322;27;66566;-38
2021/11/23 04:16:30;;;;;;;;;;;;;;;30.38;62.35;100839.88;5074314;27;69539;-38
2021/11/23 04:19:00;;;;;;;;;;;;;;;30.42;62.01;100840.25;5074765;28;66142;-38
2021/11/23 04:21:30;;;;;;;;;;;;;;;30.45;61.94;100839.81;5073137;27;70511;-37
2021/11/23 04:24:00;;;;;;;;;;;;;;;30.47;61.89;100838.56;5074008;27;65598;-38
2021/11/23 04:26:30;;;;;;;;;;;;;;;30.51;62.02;100838.97;5073626;27;70305;-37
2021/11/23 04:29:00;;;;;;;;;;;;;;;30.53;62.30;100834.16;5075833;27;65981;-38
2021/11/23 04:31:30;;;;;;;;;;;;;;;30.56;61.89;100831.00;5073632;27;70022;-37
2021/11/23 04:34:00;;;;;;;;;;;;;;;30.59;62.00;100830.59;5057221;28;66389;-38
2021/11/23 04:36:31;;;;;;;;;;;;;;;30.62;61.72;100824.72;5075660;27;70225;-38
2021/11/23 04:39:01;;;;;;;;;;;;;;;30.64;61.55;100821.78;5073709;27;66906;-38
2021/11/23 04:41:31;;;;;;;;;;;;;;;30.66;61.88;100817.81;5075820;27;70518;-38
2021/11/23 04:44:01;;;;;;;;;;;;;;;30.68;61.86;100813.00;5072518;27;65788;-38
2021/11/23 04:46:31;;;;;;;;;;;;;;;30.70;61.51;100808.22;5073505;27;69469;-38
2021/11/23 04:49:02;;;;;;;;;;;;;;;30.73;61.81;100798.81;5074444;27;65444;-38
2021/11/23 04:51:33;;;;;;;;;;;;;;;30.76;61.64;100800.22;5075792;27;70296;-38
2021/11/23 04:54:03;;;;;;;;;;;;;;;30.78;61.52;100788.13;5059894;27;67931;-38
2021/11/23 04:56:33;;;;;;;;;;;;;;;30.81;61.23;100789.59;5074196;27;70125;-39
2021/11/23 04:59:03;;;;;;;;;;;;;;;30.82;61.13;100788.56;5076207;27;65446;-37
2021/11/23 05:01:34;;;;;;;;;;;;;;;30.84;61.59;100789.16;5075842;27;69928;-37
2021/11/23 05:04:04;;;;;;;;;;;;;;;30.87;61.46;100788.72;5077577;27;66402;-38
2021/11/23 05:06:34;;;;;;;;;;;;;;;30.89;60.94;100781.19;5078774;27;70337;-38
2021/11/23 05:09:05;;;;;;;;;;;;;;;30.90;61.19;100772.03;5076677;27;66573;-37
2021/11/23 05:11:40;;;;;;;;;;;;;;;30.90;61.47;100770.16;5063484;28;69846;-38
2021/11/23 05:14:10;;;;;;;;;;;;;;;30.93;61.30;100763.47;5076419;27;66560;-38
2021/11/23 05:16:40;;;;;;;;;;;;;;;30.96;61.14;100762.19;5076516;27;70235;-37
2021/11/23 05:19:10;;;;;;;;;;;;;;;30.98;60.91;100763.63;5075196;27;66343;-38
2021/11/23 05:21:40;;;;;;;;;;;;;;;31.01;60.92;100754.19;5076998;27;69499;-38
2021/11/23 05:24:10;;;;;;;;;;;;;;;31.03;61.38;100755.63;5075474;27;66780;-40
2021/11/23 05:26:41;;;;;;;;;;;;;;;31.05;61.03;100752.72;5078680;27;69465;-38
2021/11/23 05:29:13;;;;;;;;;;;;;;;31.06;61.03;100755.19;5076698;27;66976;-38
2021/11/23 05:31:43;;;;;;;;;;;;;;;31.09;61.10;100751.19;5077144;27;69199;-38
2021/11/23 05:34:13;;;;;;;;;;;;;;;31.11;61.21;100746.38;5076732;27;67061;-38
2021/11/23 05:36:44;;;;;;;;;;;;;;;31.13;60.68;100750.53;5078873;27;70416;-38
2021/11/23 05:39:14;;;;;;;;;;;;;;;31.11;61.13;100739.06;5076814;27;66353;-37
2021/11/23 05:41:45;;;;;;;;;;;;;;;31.15;61.00;100726.75;5078613;27;70184;-39
2021/11/23 05:44:24;;;;;;;;;;;;;;;31.19;60.92;100715.47;5075272;27;66245;-38
2021/11/23 05:46:54;;;;;;;;;;;;;;;31.21;60.90;100708.75;5078131;27;69153;-38
2021/11/23 05:49:24;;;;;;;;;;;;;;;31.23;60.59;100708.50;5077496;27;65560;-38
2021/11/23 05:51:55;;;;;;;;;;;;;;;31.24;60.39;100704.78;5075838;27;69778;-37
2021/11/23 05:54:31;;;;;;;;;;;;;;;31.27;60.77;100707.84;5077300;27;66033;-38
2021/11/23 05:57:01;;;;;;;;;;;;;;;31.29;60.84;100711.16;5077510;27;70042;-38
2021/11/23 05:59:31;;;;;;;;;;;;;;;31.32;60.48;100704.47;5075591;27;67234;-38
2021/11/23 06:02:01;;;;;;;;;;;;;;;31.33;60.90;100700.69;5078345;27;69008;-38
2021/11/23 06:04:38;;;;;;;;;;;;;;;31.34;61.17;100703.19;5077269;27;66489;-38
2021/11/23 06:07:08;;;;;;;;;;;;;;;31.35;60.84;100699.41;5076604;27;69224;-39
2021/11/23 06:09:46;;;;;;;;;;;;;;;31.37;60.82;100691.06;5076205;27;65276;-38
2021/11/23 06:12:28;;;;;;;;;;;;;;;31.37;61.27;100689.22;5077336;27;70748;-39
2021/11/23 06:14:59;;;;;;;;;;;;;;;31.37;61.16;100680.22;5066516;27;66486;-39
2021/11/23 06:17:30;;;;;;;;;;;;;;;31.38;61.10;100681.91;5076612;27;69772;-38
2021/11/23 06:20:00;;;;;;;;;;;;;;;31.38;61.32;100677.28;5078386;27;65234;-38
2021/11/23 06:22:31;;;;;;;;;;;;;;;31.38;61.23;100671.06;5078259;27;70750;-38
2021/11/23 06:25:04;;;;;;;;;;;;;;;31.41;61.52;100675.19;5075137;27;66000;-38
2021/11/23 06:27:35;;;;;;;;;;;;;;;31.41;61.09;100667.88;5077468;27;71000;-38
2021/11/23 06:30:06;;;;;;;;;;;;;;;31.42;61.22;100657.88;5077240;27;66671;-39
2021/11/23 06:32:36;;;;;;;;;;;;;;;31.44;61.33;100647.63;5076382;27;70497;-37
2021/11/23 06:35:06;;;;;;;;;;;;;;;31.44;61.35;100645.72;5076446;27;66663;-38
2021/11/23 06:37:36;;;;;;;;;;;;;;;31.45;61.46;100639.25;5078756;27;70205;-38
2021/11/23 06:40:07;;;;;;;;;;;;;;;31.47;61.36;100637.13;5076051;27;66199;-38
2021/11/23 06:42:37;;;;;;;;;;;;;;;31.48;61.35;100633.38;5075953;27;70166;-38
2021/11/23 06:45:08;;;;;;;;;;;;;;;31.49;61.14;100632.31;5076153;27;66582;-38
2021/11/23 06:47:38;;;;;;;;;;;;;;;31.50;61.40;100628.53;5075388;27;70129;-39
2021/11/23 06:50:08;;;;;;;;;;;;;;;31.52;61.21;100626.44;5076252;27;65991;-38
2021/11/23 06:52:39;;;;;;;;;;;;;;;31.54;61.24;100616.19;5077566;27;70337;-37
2021/11/23 06:55:09;;;;;;;;;;;;;;;31.55;60.98;100617.03;5074132;27;66050;-37
2021/11/23 06:57:39;;;;;;;;;;;;;;;31.55;61.40;100617.84;5076113;27;69372;-38
2021/11/23 07:00:10;;;;;;;;;;;;;;;31.55;61.61;100617.84;5075513;27;66220;-38
2021/11/23 07:02:40;;;;;;;;;;;;;;;31.55;61.40;100634.09;5074108;27;69530;-38
2021/11/23 07:05:11;;;;;;;;;;;;;;;31.56;61.70;100629.50;5074641;27;65596;-38
2021/11/23 07:07:54;;;;;;;;;;;;;;;31.57;61.58;100612.19;5063509;27;70487;-37
2021/11/23 07:10:34;;;;;;;;;;;;;;;31.58;61.38;100613.84;5072521;27;67674;-38
2021/11/23 07:13:06;;;;;;;;;;;;;;;31.57;61.56;100626.56;5075304;27;70642;-37
2021/11/23 07:15:37;;;;;;;;;;;;;;;31.57;61.68;100639.31;5076731;27;67138;-37
2021/11/23 07:18:07;;;;;;;;;;;;;;;31.58;61.32;100649.91;5075030;27;70244;-38
2021/11/23 07:20:37;;;;;;;;;;;;;;;31.51;61.54;100654.63;5073501;27;65584;-38
2021/11/23 07:23:08;;;;;;;;;;;;;;;31.46;61.33;100662.59;5076567;27;70086;-36
2021/11/23 07:25:41;;;;;;;;;;;;;;;31.54;61.79;100697.53;5075977;27;66152;-38
2021/11/23 07:28:21;;;;;;;;;;;;;;;31.56;61.92;100689.16;5055088;28;70314;-38
2021/11/23 07:31:14;;;;;;;;;;;;;;;31.56;62.36;100700.81;5074395;27;59919;-38
2021/11/23 07:33:52;;;;;;;;;;;;;;;31.55;62.45;100688.31;5075418;27;69585;-38
2021/11/23 07:36:25;;;;;;;;;;;;;;;31.57;62.35;100680.81;5074594;27;66289;-38
2021/11/23 07:39:03;;;;;;;;;;;;;;;31.56;62.24;100662.84;5073724;27;69437;-38
2021/11/23 07:41:39;;;;;;;;;;;;;;;31.56;62.57;100646.59;5076268;27;66896;-38
2021/11/23 07:44:10;;;;;;;;;;;;;;;31.57;62.62;100642.84;5075929;27;69531;-38
2021/11/23 07:46:40;;;;;;;;;;;;;;;31.58;63.02;100640.94;5076732;27;66236;-38
2021/11/23 07:49:10;;;;;;;;;;;;;;;31.56;62.49;100640.34;5076947;27;69188;-38
2021/11/23 07:51:41;;;;;;;;;;;;;;;31.56;62.85;100652.00;5073164;27;66812;-38
2021/11/23 07:54:11;;;;;;;;;;;;;;;31.55;62.69;100660.41;5077318;27;70460;-38
2021/11/23 07:56:42;;;;;;;;;;;;;;;31.54;62.95;100665.00;5075565;27;66555;-42
2021/11/23 07:59:12;;;;;;;;;;;;;;;31.52;62.96;100672.53;5059842;27;70349;-39
2021/11/23 08:01:42;;;;;;;;;;;;;;;31.52;62.76;100677.94;5074818;27;65985;-38
2021/11/23 08:04:13;;;;;;;;;;;;;;;31.51;62.90;100664.59;5058466;28;70121;-38
2021/11/23 08:06:43;;;;;;;;;;;;;;;31.50;63.01;100646.69;5071870;27;66841;-38
2021/11/23 08:09:13;;;;;;;;;;;;;;;31.47;63.25;100634.44;5074932;27;69440;-39
2021/11/23 08:11:43;;;;;;;;;;;;;;;31.46;62.89;100623.84;5072333;27;66458;-40
2021/11/23 08:14:13;;;;;;;;;;;;;;;31.45;63.41;100616.75;5074388;27;69538;-39
2021/11/23 08:16:43;;;;;;;;;;;;;;;31.44;63.18;100610.50;5075415;27;66106;-39
2021/11/23 08:19:28;;;;;;;;;;;;;;;31.41;63.08;100592.00;5075145;27;67933;-38
2021/11/23 08:22:01;;;;;;;;;;;;;;;31.39;62.93;100584.06;5075945;27;66195;-38
2021/11/23 08:24:32;;;;;;;;;;;;;;;31.38;63.60;100576.19;5073923;27;70098;-38
2021/11/23 08:27:02;;;;;;;;;;;;;;;31.38;63.34;100562.63;5073043;27;66485;-38
2021/11/23 08:29:59;;;;;;;;;;;;;;;31.36;63.41;100559.31;5074193;27;69105;-38
2021/11/23 08:32:29;;;;;;;;;;;;;;;31.35;63.62;100565.78;5071228;27;66667;-38
2021/11/23 08:35:00;;;;;;;;;;;;;;;31.33;63.65;100570.59;5075564;27;69312;-38
2021/11/23 08:37:31;;;;;;;;;;;;;;;31.31;63.50;100587.06;5075593;27;66214;-37
2021/11/23 08:40:01;;;;;;;;;;;;;;;31.30;63.57;100596.28;5072594;27;69159;-38
2021/11/23 08:42:32;;;;;;;;;;;;;;;31.29;63.62;100605.47;5074189;27;66735;-39
2021/11/23 08:45:02;;;;;;;;;;;;;;;31.27;63.57;100609.47;5075488;27;70293;-37
2021/11/23 08:47:32;;;;;;;;;;;;;;;31.26;63.90;100608.66;5074421;27;66694;-37
2021/11/23 08:50:04;;;;;;;;;;;;;;;31.24;64.44;100621.59;5075486;27;69415;-38
2021/11/23 08:52:34;;;;;;;;;;;;;;;31.09;64.31;100600.31;5075749;27;66732;-37
2021/11/23 08:55:05;;;;;;;;;;;;;;;31.21;64.63;100615.81;5073397;27;69933;-38
2021/11/23 08:57:36;;;;;;;;;;;;;;;31.19;64.69;100629.56;5074676;27;66586;-38
2021/11/23 09:00:18;;;;;;;;;;;;;;;31.16;64.80;100625.44;5074082;27;70449;-38
2021/11/23 09:02:49;;;;;;;;;;;;;;;31.16;64.17;100624.63;5061260;27;65986;-39
2021/11/23 09:05:21;;;;;;;;;;;;;;;31.15;64.79;100626.50;5075908;27;69443;-39
2021/11/23 09:07:51;;;;;;;;;;;;;;;31.15;64.75;100628.38;5072524;28;67215;-37
2021/11/23 09:10:25;;;;;;;;;;;;;;;31.12;64.88;100629.66;5075612;27;70051;-37
2021/11/23 09:12:57;;;;;;;;;;;;;;;31.11;64.93;100632.59;5074079;27;66215;-36
2021/11/23 09:15:28;;;;;;;;;;;;;;;31.09;64.64;100640.97;5069498;27;70369;-37
2021/11/23 09:18:03;;;;;;;;;;;;;;;31.08;64.53;100652.00;5073916;27;66995;-37
2021/11/23 09:20:36;;;;;;;;;;;;;;;31.06;65.04;100641.38;5072937;27;69905;-38
2021/11/23 09:23:07;;;;;;;;;;;;;;;31.06;64.61;100646.81;5073792;27;65707;-37
2021/11/23 09:25:37;;;;;;;;;;;;;;;31.04;64.59;100648.94;5073890;27;69766;-37
2021/11/23 09:28:08;;;;;;;;;;;;;;;31.04;64.88;100646.22;5071938;27;66555;-37
2021/11/23 09:30:40;;;;;;;;;;;;;;;31.02;65.08;100645.63;5075212;27;69987;-38
2021/11/23 09:33:10;;;;;;;;;;;;;;;31.02;64.84;100645.63;5073933;27;66367;-37
2021/11/23 09:35:39;;;;;;;;;;;;;;;31.01;64.66;100649.41;5071736;27;70292;-38
2021/11/23 09:38:10;;;;;;;;;;;;;;;31.01;64.94;100648.53;5073529;27;66460;-38
2021/11/23 09:40:41;;;;;;;;;;;;;;;31.00;65.05;100658.56;5076544;27;70459;-38
2021/11/23 09:43:11;;;;;;;;;;;;;;;31.01;65.07;100659.38;5072187;27;66987;-38
2021/11/23 09:45:41;;;;;;;;;;;;;;;30.99;64.96;100656.91;5077589;27;70263;-38
2021/11/23 09:48:11;;;;;;;;;;;;;;;30.99;65.53;100667.75;5073087;27;66380;-38
2021/11/23 09:50:42;;;;;;;;;;;;;;;30.97;65.17;100675.25;5077178;27;70161;-38
2021/11/23 09:53:14;;;;;;;;;;;;;;;30.97;64.86;100664.44;5077266;27;66903;-38
2021/11/23 09:55:45;;;;;;;;;;;;;;;30.97;65.25;100669.84;5077154;27;68822;-38
2021/11/23 09:58:15;;;;;;;;;;;;;;;30.96;65.25;100673.63;5075980;27;66716;-37
2021/11/23 10:00:48;;;;;;;;;;;;;;;30.95;65.32;100677.38;5076988;27;70236;-38
2021/11/23 10:03:27;;;;;;;;;;;;;;;30.95;65.38;100677.38;5073654;28;65514;-37
2021/11/23 10:06:04;;;;;;;;;;;;;;;30.92;65.26;100677.81;5062843;27;70615;-39
2021/11/23 10:08:35;;;;;;;;;;;;;;;30.93;65.02;100684.91;5077935;27;66808;-38
2021/11/23 10:11:05;;;;;;;;;;;;;;;30.92;65.34;100683.25;5063275;27;69928;-39
2021/11/23 10:13:38;;;;;;;;;;;;;;;30.91;64.79;100687.00;5078827;27;65694;-38
2021/11/23 10:16:09;;;;;;;;;;;;;;;30.91;65.28;100689.72;5062589;27;69088;-38
2021/11/23 10:18:52;;;;;;;;;;;;;;;30.91;64.85;100703.25;5077968;27;66613;-37
2021/11/23 10:21:26;;;;;;;;;;;;;;;30.90;64.83;100698.91;5077417;27;69219;-38
2021/11/23 10:23:56;;;;;;;;;;;;;;;30.89;64.86;100695.34;5075620;27;66947;-38
2021/11/23 10:26:27;;;;;;;;;;;;;;;30.91;65.34;100703.25;5077154;27;69253;-37
2021/11/23 10:29:04;;;;;;;;;;;;;;;30.91;64.77;100704.09;5075021;27;65456;-38
2021/11/23 10:31:39;;;;;;;;;;;;;;;30.92;64.84;100711.19;5074059;27;69495;-37
2021/11/23 10:34:14;;;;;;;;;;;;;;;30.95;65.38;100709.88;5079334;27;66622;-37
2021/11/23 10:36:45;;;;;;;;;;;;;;;30.97;65.52;100713.19;5077878;27;69126;-36
2021/11/23 10:39:20;;;;;;;;;;;;;;;30.99;68.56;100719.22;5080599;27;65621;-37
2021/11/23 10:41:54;;;;;;;;;;;;;;;30.97;70.27;100715.91;5077985;27;70154;-37
2021/11/23 10:44:35;;;;;;;;;;;;;;;30.98;68.92;100720.28;5078740;27;64822;-37
2021/11/23 10:47:11;;;;;;;;;;;;;;;30.99;68.09;100724.63;5079561;27;69698;-36
2021/11/23 10:49:46;;;;;;;;;;;;;;;31.00;69.03;100729.00;5080004;27;66731;-37
2021/11/23 10:52:27;;;;;;;;;;;;;;;31.01;68.41;100736.09;5079452;27;70315;-37
2021/11/23 10:54:57;;;;;;;;;;;;;;;31.02;68.75;100736.91;5075657;27;65771;-37
2021/11/23 10:57:27;;;;;;;;;;;;;;;31.03;68.77;100744.78;5077220;27;71055;-37
2021/11/23 10:59:56;;;;;;;;;;;;;;;31.05;68.21;100742.69;5077354;27;65044;-39
2021/11/23 11:02:27;;;;;;;;;;;;;;;31.07;68.85;100747.91;5079535;27;70702;-38
2021/11/23 11:04:57;;;;;;;;;;;;;;;31.07;68.89;100746.00;5077020;27;66605;-38
2021/11/23 11:07:27;;;;;;;;;;;;;;;31.07;68.90;100740.59;5074667;27;69842;-36
2021/11/23 11:09:58;;;;;;;;;;;;;;;31.08;69.04;100749.53;5058715;28;64527;-37
2021/11/23 11:12:28;;;;;;;;;;;;;;;31.08;69.10;100753.06;5079456;27;69345;-38
2021/11/23 11:14:59;;;;;;;;;;;;;;;31.09;69.41;100760.16;5078307;27;66888;-37
2021/11/23 11:17:29;;;;;;;;;;;;;;;31.09;69.41;100764.75;5079019;27;70005;-38
2021/11/23 11:19:59;;;;;;;;;;;;;;;31.07;69.76;100767.69;5078659;27;65001;-38
2021/11/23 11:22:50;;;;;;;;;;;;;;;31.05;70.95;100775.19;5074977;27;69267;-37
2021/11/23 11:25:25;;;;;;;;;;;;;;;31.03;71.63;100788.13;5077927;27;66948;-37
2021/11/23 11:27:55;;;;;;;;;;;;;;;31.01;72.40;100795.69;5075872;27;69469;-37
2021/11/23 11:30:32;;;;;;;;;;;;;;;31.02;71.52;100797.31;5077019;27;66030;-38
2021/11/23 11:33:08;;;;;;;;;;;;;;;30.97;71.23;100799.88;5076801;27;69589;-38
2021/11/23 11:35:40;;;;;;;;;;;;;;;30.87;71.46;100794.97;5075020;27;66082;-38
2021/11/23 11:38:26;;;;;;;;;;;;;;;30.87;71.15;100804.94;5076251;27;69909;-38
2021/11/23 11:41:03;;;;;;;;;;;;;;;30.84;70.39;100808.09;5076610;27;65868;-39
2021/11/23 11:43:37;;;;;;;;;;;;;;;30.80;71.60;100817.75;5076023;27;70102;-38
2021/11/23 11:46:09;;;;;;;;;;;;;;;30.57;72.02;100819.16;5078575;27;65763;-39
2021/11/23 11:48:39;;;;;;;;;;;;;;;30.42;72.47;100818.63;5061369;27;69290;-38
2021/11/23 11:51:09;;;;;;;;;;;;;;;30.27;73.19;100817.03;5078851;27;65109;-38
2021/11/23 11:53:47;;;;;;;;;;;;;;;30.21;73.10;100823.31;5031829;27;68349;-39
2021/11/23 11:56:35;;;;;;;;;;;;;;;30.09;73.79;100819.63;5079799;27;65351;-38
2021/11/23 11:59:22;;;;;;;;;;;;;;;30.08;73.89;100836.91;5079126;27;69502;-38
2021/11/23 12:01:59;;;;;;;;;;;;;;;30.03;74.30;100839.41;5079683;27;65498;-38
2021/11/23 12:04:33;;;;;;;;;;;;;;;30.00;74.24;100842.56;5077606;27;69282;-38
2021/11/23 12:07:11;;;;;;;;;;;;;;;29.99;74.72;100846.31;5079317;27;66113;-38
2021/11/23 12:09:50;;;;;;;;;;;;;;;29.98;75.47;100839.25;5077215;27;70736;-38
2021/11/23 12:12:27;;;;;;;;;;;;;;;30.01;75.99;100844.22;5077292;27;66768;-36
2021/11/23 12:15:09;;;;;;;;;;;;;;;30.00;75.21;100840.66;5076195;27;69841;-38
2021/11/23 12:17:57;;;;;;;;;;;;;;;30.01;75.46;100846.94;5077635;27;66288;-37
2021/11/23 12:20:38;;;;;;;;;;;;;;;29.99;76.14;100836.31;5062775;27;69163;-36
2021/11/23 12:23:13;;;;;;;;;;;;;;;29.93;73.77;100841.78;5077569;28;65180;-36
2021/11/23 12:26:06;;;;;;;;;;;;;;;29.70;70.97;100848.50;5078663;27;70525;-37
2021/11/23 12:28:36;;;;;;;;;;;;;;;29.52;67.58;100859.13;5075108;27;65412;-37
2021/11/23 12:31:11;;;;;;;;;;;;;;;29.37;65.73;100867.47;5078188;27;70337;-39
2021/11/23 12:33:45;;;;;;;;;;;;;;;29.22;63.91;100874.97;5076983;27;66433;-37
2021/11/23 12:36:19;;;;;;;;;;;;;;;29.06;62.15;100878.91;5075975;27;70341;-38
2021/11/23 12:38:51;;;;;;;;;;;;;;;28.94;62.34;100886.78;5073556;27;66445;-37
2021/11/23 12:41:23;;;;;;;;;;;;;;;28.85;61.25;100899.66;5077727;27;70427;-38
2021/11/23 12:43:54;;;;;;;;;;;;;;;28.79;65.08;100910.47;5077341;27;67483;-38
2021/11/23 12:46:27;;;;;;;;;;;;;;;28.76;65.20;100911.69;5077697;27;69527;-37
2021/11/23 12:48:57;;;;;;;;;;;;;;;28.69;63.17;100916.25;5076472;27;66971;-37
2021/11/23 12:51:29;;;;;;;;;;;;;;;28.67;63.18;100918.34;5077661;27;69991;-37
2021/11/23 12:54:04;;;;;;;;;;;;;;;28.59;61.62;100924.75;5077294;27;65412;-35
2021/11/23 12:57:00;;;;;;;;;;;;;;;28.54;59.75;100934.50;5076234;27;69982;-36
2021/11/23 12:59:37;;;;;;;;;;;;;;;28.47;59.07;100932.59;5067670;27;65961;-36